createdAt,value
2018-09-19T00:00:42.881Z,4.00
2018-09-19T00:01:42.849Z,4.00
2018-09-19T00:02:42.840Z,4.00
2018-09-19T00:03:42.819Z,4.00
2018-09-19T00:04:42.821Z,4.00
2018-09-19T00:05:42.821Z,4.00
2018-09-19T00:06:42.775Z,4.00
2018-09-19T00:07:42.767Z,4.00
2018-09-19T00:08:42.745Z,4.00
2018-09-19T00:09:42.733Z,4.00
2018-09-19T00:10:42.718Z,4.00
2018-09-19T00:11:42.702Z,4.00
2018-09-19T00:12:42.690Z,4.00
2018-09-19T00:13:42.681Z,4.00
2018-09-19T00:14:42.660Z,4.00
2018-09-19T00:15:42.646Z,4.00
2018-09-19T00:16:42.661Z,4.00
2018-09-19T00:17:42.616Z,4.00
2018-09-19T00:18:42.603Z,4.00
2018-09-19T00:19:42.585Z,4.00
2018-09-19T00:20:42.575Z,4.00
2018-09-19T00:21:42.566Z,4.00
2018-09-19T00:22:42.543Z,4.00
2018-09-19T00:23:42.527Z,4.00
2018-09-19T00:24:42.566Z,4.00
2018-09-19T00:25:42.503Z,4.00
2018-09-19T00:26:42.504Z,4.00
2018-09-19T00:27:42.468Z,4.00
2018-09-19T00:28:42.464Z,4.00
2018-09-19T00:29:42.444Z,4.00
2018-09-19T00:30:42.427Z,4.00
2018-09-19T00:31:42.413Z,4.00
2018-09-19T00:32:42.400Z,4.00
2018-09-19T00:33:42.387Z,4.00
2018-09-19T00:34:42.367Z,4.00
2018-09-19T00:35:42.361Z,4.00
2018-09-19T00:36:42.337Z,4.00
2018-09-19T00:37:42.324Z,4.00
2018-09-19T00:38:42.317Z,4.00
2018-09-19T00:39:42.293Z,4.00
2018-09-19T00:40:42.278Z,4.00
2018-09-19T00:41:42.277Z,4.00
2018-09-19T00:42:42.251Z,4.00
2018-09-19T00:43:42.235Z,4.00
2018-09-19T00:44:42.300Z,4.00
2018-09-19T00:45:43.016Z,4.00
2018-09-19T00:47:51.459Z,4.00
2018-09-19T00:48:54.063Z,4.00
2018-09-19T00:50:48.947Z,4.00
2018-09-19T00:51:46.717Z,4.00
2018-09-19T00:52:45.488Z,4.00
2018-09-19T00:53:45.472Z,4.00
2018-09-19T00:54:45.455Z,4.00
2018-09-19T00:55:45.441Z,4.00
2018-09-19T00:56:45.526Z,4.00
2018-09-19T00:57:45.412Z,4.00
2018-09-19T00:58:45.398Z,4.00
2018-09-19T00:59:45.383Z,4.00
2018-09-19T01:00:45.370Z,4.00
2018-09-19T01:01:45.349Z,4.00
2018-09-19T01:02:45.348Z,4.00
2018-09-19T01:03:45.331Z,4.00
2018-09-19T01:04:45.306Z,4.00
2018-09-19T01:05:45.296Z,4.00
2018-09-19T01:06:45.276Z,4.00
2018-09-19T01:07:45.270Z,4.00
2018-09-19T01:08:45.251Z,4.00
2018-09-19T01:09:45.233Z,4.00
2018-09-19T01:10:45.224Z,4.00
2018-09-19T01:11:45.201Z,4.00
2018-09-19T01:12:45.210Z,4.00
2018-09-19T01:13:45.171Z,4.00
2018-09-19T01:14:45.157Z,4.00
2018-09-19T01:15:45.170Z,4.00
2018-09-19T01:16:45.130Z,4.00
2018-09-19T01:17:45.117Z,4.00
2018-09-19T01:18:45.099Z,4.00
2018-09-19T01:19:45.088Z,4.00
2018-09-19T01:20:45.072Z,4.00
2018-09-19T01:21:45.053Z,4.00
2018-09-19T01:22:45.037Z,4.00
2018-09-19T01:23:45.025Z,4.00
2018-09-19T01:24:45.010Z,4.00
2018-09-19T01:25:44.993Z,4.00
2018-09-19T01:26:44.981Z,4.00
2018-09-19T01:27:44.973Z,4.00
2018-09-19T01:28:44.953Z,4.00
2018-09-19T01:29:44.937Z,4.00
2018-09-19T01:30:44.920Z,4.00
2018-09-19T01:31:44.912Z,4.00
2018-09-19T01:32:44.890Z,4.00
2018-09-19T01:33:44.874Z,4.00
2018-09-19T01:34:44.861Z,4.00
2018-09-19T01:35:44.845Z,4.00
2018-09-19T01:36:44.836Z,4.00
2018-09-19T01:37:44.818Z,4.00
2018-09-19T01:38:44.801Z,4.00
2018-09-19T01:39:44.786Z,4.00
2018-09-19T01:40:44.811Z,4.00
2018-09-19T01:41:44.762Z,4.00
2018-09-19T01:42:44.741Z,4.00
2018-09-19T01:43:44.728Z,4.00
2018-09-19T01:44:44.722Z,4.00
2018-09-19T01:45:44.701Z,4.00
2018-09-19T01:46:44.683Z,4.00
2018-09-19T01:47:44.672Z,4.00
2018-09-19T01:48:44.699Z,4.00
2018-09-19T01:49:44.639Z,4.00
2018-09-19T01:50:44.621Z,4.00
2018-09-19T01:51:44.609Z,4.00
2018-09-19T01:52:44.604Z,4.00
2018-09-19T01:53:44.579Z,4.00
2018-09-19T01:54:44.561Z,4.00
2018-09-19T01:55:44.551Z,4.00
2018-09-19T01:56:44.591Z,4.00
2018-09-19T01:57:44.517Z,4.00
2018-09-19T01:58:44.510Z,4.00
2018-09-19T01:59:44.488Z,4.00
2018-09-19T02:00:44.475Z,4.00
2018-09-19T02:01:44.509Z,4.00
2018-09-19T02:02:44.456Z,4.00
2018-09-19T02:03:44.430Z,4.00
2018-09-19T02:04:44.418Z,4.00
2018-09-19T02:05:44.401Z,4.00
2018-09-19T02:06:44.384Z,4.00
2018-09-19T02:07:44.372Z,4.00
2018-09-19T02:08:44.354Z,4.00
2018-09-19T02:09:44.391Z,4.00
2018-09-19T02:10:44.324Z,4.00
2018-09-19T02:11:44.311Z,4.00
2018-09-19T02:12:44.297Z,4.00
2018-09-19T02:13:44.279Z,4.00
2018-09-19T02:14:44.266Z,4.00
2018-09-19T02:15:44.248Z,4.00
2018-09-19T02:16:44.233Z,4.00
2018-09-19T02:17:44.220Z,4.00
2018-09-19T02:18:44.207Z,4.00
2018-09-19T02:19:44.190Z,4.00
2018-09-19T02:20:44.177Z,4.00
2018-09-19T02:21:44.160Z,4.00
2018-09-19T02:22:44.143Z,4.00
2018-09-19T02:23:44.133Z,4.00
2018-09-19T02:24:44.114Z,4.00
2018-09-19T02:25:44.110Z,4.00
2018-09-19T02:26:44.085Z,4.00
2018-09-19T02:27:44.070Z,4.00
2018-09-19T02:28:44.159Z,4.00
2018-09-19T02:29:44.040Z,4.00
2018-09-19T02:30:44.037Z,4.00
2018-09-19T02:31:44.017Z,4.00
2018-09-19T02:32:43.995Z,4.00
2018-09-19T02:33:43.988Z,4.00
2018-09-19T02:34:43.964Z,4.00
2018-09-19T02:35:43.951Z,4.00
2018-09-19T02:36:43.935Z,4.00
2018-09-19T02:37:43.927Z,4.00
2018-09-19T02:38:43.909Z,4.00
2018-09-19T02:39:43.893Z,4.00
2018-09-19T02:40:43.876Z,4.00
2018-09-19T02:41:43.860Z,4.00
2018-09-19T02:42:43.854Z,4.00
2018-09-19T02:43:43.834Z,4.00
2018-09-19T02:44:43.942Z,4.00
2018-09-19T02:45:43.801Z,4.00
2018-09-19T02:46:43.790Z,4.00
2018-09-19T02:47:43.813Z,4.00
2018-09-19T02:48:43.754Z,4.00
2018-09-19T02:49:43.740Z,4.00
2018-09-19T02:50:43.734Z,4.00
2018-09-19T02:51:43.715Z,4.00
2018-09-19T02:52:43.705Z,4.00
2018-09-19T02:53:43.683Z,4.00
2018-09-19T02:54:43.665Z,4.00
2018-09-19T02:55:43.654Z,4.00
2018-09-19T02:56:43.634Z,4.00
2018-09-19T02:57:43.618Z,4.00
2018-09-19T02:58:43.602Z,4.00
2018-09-19T02:59:43.588Z,4.00
2018-09-19T03:00:43.574Z,4.00
2018-09-19T03:01:43.560Z,4.00
2018-09-19T03:02:43.542Z,4.00
2018-09-19T03:03:43.528Z,4.00
2018-09-19T03:05:43.504Z,4.00
2018-09-19T03:06:43.482Z,4.00
2018-09-19T03:07:43.473Z,4.00
2018-09-19T03:08:43.561Z,4.00
2018-09-19T03:09:43.438Z,4.00
2018-09-19T03:10:43.422Z,4.00
2018-09-19T03:11:43.407Z,4.00
2018-09-19T03:12:43.400Z,4.00
2018-09-19T03:13:43.383Z,4.00
2018-09-19T03:14:43.376Z,4.00
2018-09-19T03:15:43.359Z,4.00
2018-09-19T03:16:43.338Z,4.00
2018-09-19T03:17:43.575Z,4.00
2018-09-19T03:18:43.301Z,4.00
2018-09-19T03:19:43.285Z,4.00
2018-09-19T03:20:43.276Z,4.00
2018-09-19T03:21:43.259Z,4.00
2018-09-19T03:22:43.247Z,4.00
2018-09-19T03:23:43.246Z,4.00
2018-09-19T03:24:43.208Z,4.00
2018-09-19T03:25:43.194Z,4.00
2018-09-19T03:26:43.178Z,4.00
2018-09-19T03:27:43.167Z,4.00
2018-09-19T03:28:43.150Z,4.00
2018-09-19T03:29:43.133Z,4.00
2018-09-19T03:30:43.128Z,4.00
2018-09-19T03:31:43.103Z,4.00
2018-09-19T03:32:43.090Z,4.00
2018-09-19T03:33:43.072Z,4.00
2018-09-19T03:34:43.059Z,4.00
2018-09-19T03:35:43.043Z,4.00
2018-09-19T03:36:43.026Z,4.00
2018-09-19T03:37:43.011Z,4.00
2018-09-19T03:38:42.995Z,4.00
2018-09-19T03:39:42.986Z,4.00
2018-09-19T03:40:42.970Z,4.00
2018-09-19T03:41:42.949Z,4.00
2018-09-19T03:42:42.934Z,4.00
2018-09-19T03:43:42.919Z,4.00
2018-09-19T03:44:42.910Z,4.00
2018-09-19T03:45:42.891Z,4.00
2018-09-19T03:46:42.876Z,4.00
2018-09-19T03:47:42.855Z,4.00
2018-09-19T03:48:42.850Z,4.00
2018-09-19T03:49:42.828Z,4.00
2018-09-19T03:50:42.810Z,4.00
2018-09-19T03:51:42.794Z,4.00
2018-09-19T03:52:42.779Z,4.00
2018-09-19T03:53:42.764Z,4.00
2018-09-19T03:54:42.898Z,4.00
2018-09-19T03:55:42.733Z,4.00
2018-09-19T03:56:42.718Z,4.00
2018-09-19T03:57:42.756Z,4.00
2018-09-19T03:58:42.689Z,4.00
2018-09-19T03:59:42.694Z,4.00
2018-09-19T04:00:42.656Z,4.00
2018-09-19T04:01:42.653Z,4.00
2018-09-19T04:02:42.623Z,4.00
2018-09-19T04:03:42.609Z,4.00
2018-09-19T04:04:42.596Z,4.00
2018-09-19T04:05:42.585Z,4.00
2018-09-19T04:06:42.572Z,4.00
2018-09-19T04:07:42.554Z,4.00
2018-09-19T04:08:42.537Z,4.00
2018-09-19T04:09:42.517Z,4.00
2018-09-19T04:10:42.501Z,4.00
2018-09-19T04:11:42.488Z,4.00
2018-09-19T04:12:42.471Z,4.00
2018-09-19T04:13:42.453Z,4.00
2018-09-19T04:14:42.442Z,4.00
2018-09-19T04:15:42.424Z,4.00
2018-09-19T04:16:42.413Z,4.00
2018-09-19T04:17:42.436Z,4.00
2018-09-19T04:18:42.377Z,4.00
2018-09-19T04:19:42.373Z,4.00
2018-09-19T04:20:42.353Z,4.00
2018-09-19T04:21:42.329Z,4.00
2018-09-19T04:22:42.317Z,4.00
2018-09-19T04:23:42.302Z,4.00
2018-09-19T04:24:42.286Z,4.00
2018-09-19T04:25:42.268Z,4.00
2018-09-19T04:26:42.254Z,4.00
2018-09-19T04:27:42.240Z,4.00
2018-09-19T04:28:42.231Z,4.00
2018-09-19T04:29:42.207Z,4.00
2018-09-19T04:30:42.191Z,4.00
2018-09-19T04:31:42.181Z,4.00
2018-09-19T04:32:42.172Z,8.00
2018-09-19T04:33:42.143Z,4.00
2018-09-19T04:34:42.136Z,4.00
2018-09-19T04:35:42.120Z,4.00
2018-09-19T04:36:42.105Z,4.00
2018-09-19T04:37:42.081Z,4.00
2018-09-19T04:38:42.066Z,8.00
2018-09-19T04:39:42.051Z,8.00
2018-09-19T04:40:42.035Z,4.00
2018-09-19T04:41:42.024Z,8.00
2018-09-19T04:42:42.002Z,8.00
2018-09-19T04:43:41.989Z,8.00
2018-09-19T04:44:41.975Z,8.00
2018-09-19T04:45:41.975Z,8.00
2018-09-19T04:46:41.941Z,12.00
2018-09-19T04:47:41.931Z,12.00
2018-09-19T04:48:44.531Z,16.00
2018-09-19T04:49:41.892Z,16.00
2018-09-19T04:50:41.882Z,16.00
2018-09-19T04:51:42.000Z,20.00
2018-09-19T04:52:41.846Z,24.00
2018-09-19T04:53:44.460Z,32.00
2018-09-19T04:55:25.600Z,36.00
2018-09-19T04:56:25.572Z,40.00
2018-09-19T04:57:25.558Z,44.00
2018-09-19T04:58:25.544Z,52.00
2018-09-19T04:59:25.524Z,64.00
2018-09-19T05:00:25.542Z,68.00
2018-09-19T05:01:25.492Z,80.00
2018-09-19T05:02:25.485Z,88.00
2018-09-19T05:03:25.461Z,100.00
2018-09-19T05:04:25.445Z,112.00
2018-09-19T05:05:25.431Z,128.00
2018-09-19T05:06:25.413Z,136.00
2018-09-19T05:07:25.484Z,152.00
2018-09-19T05:08:25.384Z,164.00
2018-09-19T05:09:25.410Z,184.00
2018-09-19T05:10:25.350Z,200.00
2018-09-19T05:11:25.406Z,220.00
2018-09-19T05:12:25.326Z,240.00
2018-09-19T05:13:25.303Z,260.00
2018-09-19T05:14:25.285Z,284.00
2018-09-19T05:15:25.278Z,304.00
2018-09-19T05:16:25.255Z,332.00
2018-09-19T05:17:25.239Z,356.00
2018-09-19T05:18:25.221Z,380.00
2018-09-19T05:19:25.216Z,408.00
2018-09-19T05:20:25.201Z,436.00
2018-09-19T05:21:25.174Z,464.00
2018-09-19T05:22:25.168Z,500.00
2018-09-19T05:23:25.145Z,532.00
2018-09-19T05:24:25.129Z,564.00
2018-09-19T05:25:25.112Z,596.00
2018-09-19T05:26:25.105Z,624.00
2018-09-19T05:27:25.083Z,648.00
2018-09-19T05:28:26.086Z,672.00
2018-09-19T05:29:25.052Z,712.00
2018-09-19T05:30:25.036Z,740.00
2018-09-19T05:31:25.040Z,768.00
2018-09-19T05:32:25.015Z,804.00
2018-09-19T05:33:24.985Z,836.00
2018-09-19T05:34:24.974Z,860.00
2018-09-19T05:35:24.958Z,880.00
2018-09-19T05:36:24.940Z,896.00
2018-09-19T05:37:24.925Z,920.00
2018-09-19T05:38:24.910Z,956.00
2018-09-19T05:39:24.891Z,996.00
2018-09-19T05:40:24.876Z,1036.00
2018-09-19T05:41:24.869Z,1072.00
2018-09-19T05:42:24.845Z,1120.00
2018-09-19T05:43:24.829Z,1164.00
2018-09-19T05:44:24.814Z,1200.00
2018-09-19T05:45:24.797Z,1244.00
2018-09-19T05:46:24.796Z,1288.00
2018-09-19T05:47:24.777Z,1332.00
2018-09-19T05:48:24.752Z,1380.00
2018-09-19T05:49:24.735Z,1432.00
2018-09-19T05:50:24.721Z,1476.00
2018-09-19T05:51:24.703Z,1528.00
2018-09-19T05:52:24.746Z,1584.00
2018-09-19T05:53:24.670Z,1688.00
2018-09-19T05:54:24.693Z,1760.00
2018-09-19T05:55:24.697Z,1840.00
2018-09-19T05:56:24.625Z,1912.00
2018-09-19T05:57:24.612Z,1944.00
2018-09-19T05:58:24.595Z,1996.00
2018-09-19T05:59:24.580Z,2072.00
2018-09-19T06:00:24.561Z,2152.00
2018-09-19T06:01:24.547Z,2204.00
2018-09-19T06:02:24.538Z,2252.00
2018-09-19T06:03:24.530Z,2324.00
2018-09-19T06:04:24.501Z,2380.00
2018-09-19T06:05:24.527Z,2412.00
2018-09-19T06:06:24.469Z,2380.00
2018-09-19T06:07:24.453Z,2452.00
2018-09-19T06:08:24.442Z,2556.00
2018-09-19T06:09:24.422Z,2620.00
2018-09-19T06:10:24.404Z,2672.00
2018-09-19T06:11:24.390Z,2748.00
2018-09-19T06:12:24.374Z,2820.00
2018-09-19T06:13:24.356Z,2868.00
2018-09-19T06:14:24.347Z,2912.00
2018-09-19T06:15:24.328Z,2964.00
2018-09-19T06:16:24.316Z,3012.00
2018-09-19T06:17:24.297Z,3052.00
2018-09-19T06:18:24.279Z,3092.00
2018-09-19T06:19:24.274Z,3132.00
2018-09-19T06:20:24.253Z,3172.00
2018-09-19T06:21:24.235Z,3212.00
2018-09-19T06:22:24.216Z,3244.00
2018-09-19T06:23:24.210Z,3288.00
2018-09-19T06:24:24.190Z,3304.00
2018-09-19T06:25:24.172Z,3344.00
2018-09-19T06:26:24.163Z,3384.00
2018-09-19T06:27:24.304Z,3428.00
2018-09-19T06:28:24.122Z,3452.00
2018-09-19T06:29:24.114Z,3504.00
2018-09-19T06:30:24.142Z,3544.00
2018-09-19T06:31:24.082Z,3580.00
2018-09-19T06:32:24.061Z,3620.00
2018-09-19T06:33:24.093Z,3652.00
2018-09-19T06:34:24.030Z,3688.00
2018-09-19T06:35:24.016Z,3716.00
2018-09-19T06:36:23.998Z,3756.00
2018-09-19T06:37:23.982Z,3776.00
2018-09-19T06:38:23.984Z,3808.00
2018-09-19T06:39:23.953Z,3832.00
2018-09-19T06:40:24.018Z,3876.00
2018-09-19T06:41:23.919Z,3904.00
2018-09-19T06:42:23.909Z,3928.00
2018-09-19T06:43:23.888Z,3968.00
2018-09-19T06:44:23.873Z,4012.00
2018-09-19T06:45:23.857Z,4024.00
2018-09-19T06:46:23.840Z,4092.00
2018-09-19T06:47:23.830Z,4100.00
2018-09-19T06:48:23.818Z,4160.00
2018-09-19T06:49:23.795Z,4128.00
2018-09-19T06:50:23.782Z,4232.00
2018-09-19T06:51:23.765Z,4232.00
2018-09-19T06:52:23.815Z,4236.00
2018-09-19T06:53:23.746Z,4308.00
2018-09-19T06:54:23.717Z,4312.00
2018-09-19T06:55:23.702Z,4392.00
2018-09-19T06:56:23.686Z,4436.00
2018-09-19T06:57:23.668Z,4436.00
2018-09-19T06:58:23.656Z,4532.00
2018-09-19T06:59:23.655Z,4564.00
2018-09-19T07:00:23.631Z,4584.00
2018-09-19T07:01:23.608Z,4628.00
2018-09-19T07:02:23.600Z,4632.00
2018-09-19T07:03:23.576Z,4648.00
2018-09-19T07:04:23.571Z,4652.00
2018-09-19T07:05:23.547Z,4676.00
2018-09-19T07:06:23.531Z,4708.00
2018-09-19T07:07:23.516Z,4688.00
2018-09-19T07:08:23.498Z,4764.00
2018-09-19T07:09:27.786Z,4836.00
2018-09-19T07:10:23.478Z,4972.00
2018-09-19T07:11:23.452Z,5144.00
2018-09-19T07:12:23.436Z,5352.00
2018-09-19T07:13:23.420Z,5424.00
2018-09-19T07:14:23.431Z,5556.00
2018-09-19T07:15:23.396Z,5616.00
2018-09-19T07:16:23.425Z,5616.00
2018-09-19T07:17:23.366Z,5548.00
2018-09-19T07:18:23.343Z,5468.00
2018-09-19T07:19:23.332Z,5392.00
2018-09-19T07:20:23.332Z,5376.00
2018-09-19T07:21:23.299Z,5320.00
2018-09-19T07:22:23.283Z,5276.00
2018-09-19T07:23:23.266Z,5184.00
2018-09-19T07:24:23.259Z,5100.00
2018-09-19T07:25:23.236Z,5108.00
2018-09-19T07:26:23.232Z,5112.00
2018-09-19T07:27:23.203Z,5204.00
2018-09-19T07:28:23.189Z,5176.00
2018-09-19T07:29:23.181Z,5168.00
2018-09-19T07:30:23.159Z,5180.00
2018-09-19T07:31:23.143Z,5228.00
2018-09-19T07:32:23.128Z,5272.00
2018-09-19T07:33:23.119Z,5368.00
2018-09-19T07:34:23.110Z,5420.00
2018-09-19T07:35:23.091Z,5436.00
2018-09-19T07:36:23.074Z,5408.00
2018-09-19T07:37:23.109Z,5424.00
2018-09-19T07:38:23.041Z,5384.00
2018-09-19T07:39:23.028Z,5368.00
2018-09-19T07:40:23.074Z,5468.00
2018-09-19T07:41:22.999Z,5520.00
2018-09-19T07:42:22.991Z,5600.00
2018-09-19T07:43:22.960Z,5600.00
2018-09-19T07:44:22.961Z,5628.00
2018-09-19T07:45:22.941Z,5652.00
2018-09-19T07:46:22.974Z,5720.00
2018-09-19T07:47:22.905Z,5756.00
2018-09-19T07:48:22.893Z,6504.00
2018-09-19T07:49:22.873Z,5836.00
2018-09-19T07:50:22.861Z,10212.00
2018-09-19T07:51:22.848Z,5824.00
2018-09-19T07:52:22.828Z,5888.00
2018-09-19T07:53:22.810Z,0.00
2018-09-19T07:54:22.833Z,7840.00
2018-09-19T07:55:22.875Z,7540.00
2018-09-19T07:56:22.768Z,10252.00
2018-09-19T07:57:22.775Z,7396.00
2018-09-19T07:58:22.739Z,6304.00
2018-09-19T07:59:22.780Z,6552.00
2018-09-19T08:00:22.755Z,7064.00
2018-09-19T08:01:22.811Z,6384.00
2018-09-19T08:02:22.691Z,6316.00
2018-09-19T08:03:22.667Z,4788.00
2018-09-19T08:04:22.651Z,6276.00
2018-09-19T08:05:22.634Z,6352.00
2018-09-19T08:06:22.622Z,6324.00
2018-09-19T08:07:22.607Z,6400.00
2018-09-19T08:08:22.590Z,6460.00
2018-09-19T08:09:22.595Z,7196.00
2018-09-19T08:10:22.564Z,6788.00
2018-09-19T08:11:22.547Z,6516.00
2018-09-19T08:12:22.540Z,6652.00
2018-09-19T08:13:22.520Z,6672.00
2018-09-19T08:14:22.506Z,6804.00
2018-09-19T08:15:22.499Z,6812.00
2018-09-19T08:16:22.482Z,6880.00
2018-09-19T08:17:22.469Z,7108.00
2018-09-19T08:18:22.448Z,7112.00
2018-09-19T08:19:22.442Z,7348.00
2018-09-19T08:20:22.423Z,7368.00
2018-09-19T08:21:22.405Z,7748.00
2018-09-19T08:22:22.428Z,7952.00
2018-09-19T08:23:22.383Z,7900.00
2018-09-19T08:24:22.361Z,8060.00
2018-09-19T08:25:22.351Z,7728.00
2018-09-19T08:26:22.333Z,8028.00
2018-09-19T08:27:22.323Z,8572.00
2018-09-19T08:28:22.304Z,7716.00
2018-09-19T08:29:22.291Z,9376.00
2018-09-19T08:30:22.307Z,14432.00
2018-09-19T08:31:22.261Z,8588.00
2018-09-19T08:32:22.296Z,18240.00
2018-09-19T08:33:22.234Z,10912.00
2018-09-19T08:34:22.221Z,8928.00
2018-09-19T08:35:22.215Z,8528.00
2018-09-19T08:36:22.218Z,10712.00
2018-09-19T08:37:22.182Z,16544.00
2018-09-19T08:38:22.171Z,15620.00
2018-09-19T08:39:22.219Z,23808.00
2018-09-19T08:40:22.154Z,19264.00
2018-09-19T08:41:22.125Z,17408.00
2018-09-19T08:42:22.119Z,9076.00
2018-09-19T08:43:22.102Z,15300.00
2018-09-19T08:44:22.133Z,10568.00
2018-09-19T08:45:22.071Z,9028.00
2018-09-19T08:46:22.060Z,9768.00
2018-09-19T08:47:22.047Z,10704.00
2018-09-19T08:48:22.032Z,9552.00
2018-09-19T08:49:22.017Z,9428.00
2018-09-19T08:50:22.032Z,11276.00
2018-09-19T08:51:21.998Z,39232.00
2018-09-19T08:52:21.990Z,12824.00
2018-09-19T08:53:21.974Z,11856.00
2018-09-19T08:54:21.953Z,14176.00
2018-09-19T08:55:21.997Z,11572.00
2018-09-19T08:56:21.933Z,10048.00
2018-09-19T08:57:21.926Z,24416.00
2018-09-19T08:58:21.910Z,50272.00
2018-09-19T08:59:21.895Z,15584.00
2018-09-19T09:00:21.878Z,36128.00
2018-09-19T09:01:21.871Z,53408.00
2018-09-19T09:02:21.860Z,23264.00
2018-09-19T09:03:21.847Z,22656.00
2018-09-19T09:04:21.832Z,38944.00
2018-09-19T09:05:21.887Z,30112.00
2018-09-19T09:06:21.805Z,13420.00
2018-09-19T09:07:21.843Z,8968.00
2018-09-19T09:08:21.785Z,9316.00
2018-09-19T09:09:21.771Z,6512.00
2018-09-19T09:10:21.758Z,9132.00
2018-09-19T09:11:21.755Z,8716.00
2018-09-19T09:12:21.801Z,8784.00
2018-09-19T09:13:21.733Z,12060.00
2018-09-19T09:14:21.735Z,8952.00
2018-09-19T09:15:21.701Z,8584.00
2018-09-19T09:16:21.729Z,9580.00
2018-09-19T09:17:21.687Z,9988.00
2018-09-19T09:18:21.675Z,9772.00
2018-09-19T09:19:21.762Z,11968.00
2018-09-19T09:20:21.646Z,10360.00
2018-09-19T09:21:21.643Z,16320.00
2018-09-19T09:22:21.634Z,11632.00
2018-09-19T09:23:21.611Z,13700.00
2018-09-19T09:24:21.601Z,17784.00
2018-09-19T09:25:21.604Z,14680.00
2018-09-19T09:26:21.582Z,11496.00
2018-09-19T09:27:21.596Z,21216.00
2018-09-19T09:28:21.565Z,53696.00
2018-09-19T09:29:21.551Z,44320.00
2018-09-19T09:30:21.540Z,18304.00
2018-09-19T09:31:21.522Z,68480.00
2018-09-19T09:32:21.640Z,47520.00
2018-09-19T09:33:21.502Z,49824.00
2018-09-19T09:34:21.556Z,63104.00
2018-09-19T09:35:21.485Z,46400.00
2018-09-19T09:36:21.487Z,54144.00
2018-09-19T09:37:21.467Z,64480.00
2018-09-19T09:38:21.461Z,65856.00
2018-09-19T09:39:21.442Z,64608.00
2018-09-19T09:40:21.530Z,63616.00
2018-09-19T09:41:21.434Z,34880.00
2018-09-19T09:42:21.424Z,61184.00
2018-09-19T09:43:21.452Z,66816.00
2018-09-19T09:44:21.407Z,65056.00
2018-09-19T09:45:21.392Z,26848.00
2018-09-19T09:46:21.385Z,59872.00
2018-09-19T09:47:21.393Z,51936.00
2018-09-19T09:48:21.372Z,27488.00
2018-09-19T09:49:21.373Z,27936.00
2018-09-19T09:50:21.435Z,26240.00
2018-09-19T09:51:21.415Z,18048.00
2018-09-19T09:52:21.343Z,15236.00
2018-09-19T09:53:21.433Z,17504.00
2018-09-19T09:54:21.329Z,19040.00
2018-09-19T09:55:21.322Z,29600.00
2018-09-19T09:56:21.313Z,69888.00
2018-09-19T09:57:21.319Z,69504.00
2018-09-19T09:58:21.300Z,71328.00
2018-09-19T09:59:21.294Z,67552.00
2018-09-19T10:00:21.283Z,65280.00
2018-09-19T10:01:21.278Z,64640.00
2018-09-19T10:02:21.279Z,63936.00
2018-09-19T10:03:21.262Z,65024.00
2018-09-19T10:04:21.256Z,67552.00
2018-09-19T10:05:21.283Z,67552.00
2018-09-19T10:06:21.298Z,69248.00
2018-09-19T10:07:21.247Z,69760.00
2018-09-19T10:08:21.234Z,70912.00
2018-09-19T10:09:21.236Z,70336.00
2018-09-19T10:10:21.223Z,66080.00
2018-09-19T10:11:24.054Z,69024.00
2018-09-19T10:12:21.211Z,77120.00
2018-09-19T10:13:21.210Z,74816.00
2018-09-19T10:14:21.202Z,68672.00
2018-09-19T10:15:21.200Z,13368.00
2018-09-19T10:16:21.192Z,68032.00
2018-09-19T10:17:21.190Z,70624.00
2018-09-19T10:18:21.217Z,24032.00
2018-09-19T10:19:21.184Z,60448.00
2018-09-19T10:20:21.177Z,54144.00
2018-09-19T10:21:21.170Z,65984.00
2018-09-19T10:22:21.166Z,73568.00
2018-09-19T10:23:21.163Z,72160.00
2018-09-19T10:24:21.158Z,69408.00
2018-09-19T10:25:21.154Z,72736.00
2018-09-19T10:26:21.151Z,69280.00
2018-09-19T10:27:21.147Z,72768.00
2018-09-19T10:28:21.145Z,11144.00
2018-09-19T10:29:21.137Z,66016.00
2018-09-19T10:30:21.144Z,69856.00
2018-09-19T10:31:21.138Z,64960.00
2018-09-19T10:32:21.127Z,28064.00
2018-09-19T10:33:21.125Z,74464.00
2018-09-19T10:34:21.120Z,16848.00
2018-09-19T10:35:21.140Z,77568.00
2018-09-19T10:36:21.110Z,18272.00
2018-09-19T10:37:21.108Z,16296.00
2018-09-19T10:38:21.107Z,79360.00
2018-09-19T10:39:21.097Z,14076.00
2018-09-19T10:40:21.101Z,12064.00
2018-09-19T10:41:21.089Z,73376.00
2018-09-19T10:42:21.084Z,74720.00
2018-09-19T10:43:21.079Z,73824.00
2018-09-19T10:44:21.083Z,71008.00
2018-09-19T10:45:21.071Z,72608.00
2018-09-19T10:46:21.065Z,73344.00
2018-09-19T10:47:21.061Z,67584.00
2018-09-19T10:48:21.107Z,20192.00
2018-09-19T10:49:21.072Z,13600.00
2018-09-19T10:50:21.049Z,76800.00
2018-09-19T10:51:21.045Z,75328.00
2018-09-19T10:52:21.040Z,19552.00
2018-09-19T10:53:21.042Z,74592.00
2018-09-19T10:55:30.212Z,11468.00
2018-09-19T10:56:30.207Z,67776.00
2018-09-19T10:57:30.208Z,68352.00
2018-09-19T10:58:30.197Z,65376.00
2018-09-19T10:59:30.192Z,12948.00
2018-09-19T11:00:30.193Z,67968.00
2018-09-19T11:01:30.200Z,57088.00
2018-09-19T11:02:30.191Z,69600.00
2018-09-19T11:03:30.221Z,69312.00
2018-09-19T11:04:30.170Z,69440.00
2018-09-19T11:05:30.165Z,12764.00
2018-09-19T11:06:30.157Z,11592.00
2018-09-19T11:07:30.158Z,12396.00
2018-09-19T11:08:30.149Z,16132.00
2018-09-19T11:09:30.145Z,11684.00
2018-09-19T11:10:30.149Z,11688.00
2018-09-19T11:11:30.131Z,23776.00
2018-09-19T11:12:30.133Z,17824.00
2018-09-19T11:13:30.120Z,60960.00
2018-09-19T11:14:30.128Z,57856.00
2018-09-19T11:15:30.110Z,54624.00
2018-09-19T11:16:30.103Z,14528.00
2018-09-19T11:17:30.110Z,11652.00
2018-09-19T11:18:30.097Z,20640.00
2018-09-19T11:19:30.090Z,63776.00
2018-09-19T11:20:30.097Z,65952.00
2018-09-19T11:21:30.099Z,33024.00
2018-09-19T11:22:30.071Z,71104.00
2018-09-19T11:23:30.080Z,68736.00
2018-09-19T11:24:30.063Z,73312.00
2018-09-19T11:25:30.053Z,63232.00
2018-09-19T11:26:30.068Z,16880.00
2018-09-19T11:27:30.052Z,11852.00
2018-09-19T11:28:30.045Z,11956.00
2018-09-19T11:29:30.033Z,10044.00
2018-09-19T11:30:30.035Z,8212.00
2018-09-19T11:31:30.023Z,7812.00
2018-09-19T11:32:30.017Z,8760.00
2018-09-19T11:33:30.062Z,9684.00
2018-09-19T11:34:30.003Z,11208.00
2018-09-19T11:35:30.002Z,12844.00
2018-09-19T11:36:29.991Z,26304.00
2018-09-19T11:37:29.983Z,13560.00
2018-09-19T11:38:29.978Z,13532.00
2018-09-19T11:39:29.973Z,14348.00
2018-09-19T11:40:30.024Z,62208.00
2018-09-19T11:41:29.959Z,60768.00
2018-09-19T11:42:29.951Z,19136.00
2018-09-19T11:43:29.959Z,17280.00
2018-09-19T11:44:29.936Z,11620.00
2018-09-19T11:45:29.934Z,10036.00
2018-09-19T11:46:29.932Z,11416.00
2018-09-19T11:47:29.917Z,12088.00
2018-09-19T11:48:29.918Z,26880.00
2018-09-19T11:49:29.902Z,16512.00
2018-09-19T11:50:29.895Z,15576.00
2018-09-19T11:51:29.889Z,10632.00
2018-09-19T11:52:29.881Z,32352.00
2018-09-19T11:53:29.981Z,12560.00
2018-09-19T11:54:29.867Z,8996.00
2018-09-19T11:55:29.859Z,8716.00
2018-09-19T11:56:29.851Z,13940.00
2018-09-19T11:57:29.844Z,11000.00
2018-09-19T11:58:29.841Z,11440.00
2018-09-19T11:59:29.830Z,11544.00
2018-09-19T12:00:29.822Z,11440.00
2018-09-19T12:01:29.813Z,12360.00
2018-09-19T12:02:29.806Z,15028.00
2018-09-19T12:03:29.798Z,14532.00
2018-09-19T12:04:29.790Z,15396.00
2018-09-19T12:05:29.783Z,12452.00
2018-09-19T12:06:29.776Z,11592.00
2018-09-19T12:07:29.775Z,11508.00
2018-09-19T12:08:29.768Z,11684.00
2018-09-19T12:09:29.748Z,10688.00
2018-09-19T12:10:29.748Z,8876.00
2018-09-19T12:11:29.747Z,9472.00
2018-09-19T12:12:29.733Z,13028.00
2018-09-19T12:13:29.715Z,12796.00
2018-09-19T12:14:29.714Z,10632.00
2018-09-19T12:15:29.701Z,11560.00
2018-09-19T12:16:29.690Z,8772.00
2018-09-19T12:17:29.691Z,8760.00
2018-09-19T12:18:29.674Z,12240.00
2018-09-19T12:19:29.693Z,12632.00
2018-09-19T12:20:29.658Z,11700.00
2018-09-19T12:21:29.654Z,10092.00
2018-09-19T12:22:29.640Z,8252.00
2018-09-19T12:23:29.634Z,8196.00
2018-09-19T12:24:29.621Z,9116.00
2018-09-19T12:25:29.613Z,8300.00
2018-09-19T12:26:29.613Z,7920.00
2018-09-19T12:27:29.595Z,8088.00
2018-09-19T12:28:29.588Z,8152.00
2018-09-19T12:29:29.584Z,8500.00
2018-09-19T12:30:29.571Z,8444.00
2018-09-19T12:31:29.560Z,8300.00
2018-09-19T12:32:29.558Z,8996.00